1PS0 weather

Ickes Airport
Osterburg, Pennsylvania, United States

Public forecast

Using degrees Fahrenheit for public forecast. Weather courtesy of forecast.io.

Closest aviation weather report (METAR) to Ickes Airport

Closest report is Bedford County Airport, 6.8 nm (12.7 km) SSE. Retrieved 2019/11/15 09:35 UTC (0 seconds ago):

KHMZ 150935Z AUTO 00000KT 10SM CLR M06/M07 A3023 RMK AO2 T10611072

Closest aviation forecast (TAF) to Ickes Airport

Closest forecast is Altoona Blair County Airport, 12.9 nm (23.8 km) ENE. Retrieved 2019/11/15 06:24 UTC (3 hours ago):

TAF KAOO 150522Z 1506/1606 00000KT P6SM SKC FM151500 26008KT P6SM SKC